createdAt,value
2023-02-28T00:00:18.780Z,100.00
2023-02-28T00:02:45.995Z,100.00
2023-02-28T00:05:14.643Z,100.00
2023-02-28T00:07:43.029Z,100.00
2023-02-28T00:10:12.253Z,100.00
2023-02-28T00:12:39.103Z,100.00
2023-02-28T00:15:10.781Z,100.00
2023-02-28T00:17:38.238Z,100.00
2023-02-28T00:20:09.338Z,100.00
2023-02-28T00:22:36.053Z,100.00
2023-02-28T00:25:02.776Z,100.00
2023-02-28T00:27:29.461Z,100.00
2023-02-28T00:29:56.108Z,100.00
2023-02-28T00:32:23.014Z,100.00
2023-02-28T00:34:49.847Z,100.00
2023-02-28T00:37:16.570Z,100.00
2023-02-28T00:39:43.436Z,100.00
2023-02-28T00:42:10.517Z,100.00
2023-02-28T00:44:37.275Z,100.00
2023-02-28T00:47:04.005Z,100.00
2023-02-28T00:49:30.668Z,100.00
2023-02-28T00:51:57.918Z,100.00
2023-02-28T00:54:25.100Z,100.00
2023-02-28T00:56:51.789Z,100.00
2023-02-28T00:59:18.690Z,100.00
2023-02-28T01:01:46.858Z,100.00
2023-02-28T01:04:14.129Z,100.00
2023-02-28T01:06:41.541Z,100.00
2023-02-28T01:09:08.827Z,100.00
2023-02-28T01:11:35.939Z,100.00
2023-02-28T01:14:03.119Z,100.00
2023-02-28T01:16:29.902Z,100.00
2023-02-28T01:18:56.876Z,100.00
2023-02-28T01:21:24.167Z,100.00
2023-02-28T01:23:51.115Z,100.00
2023-02-28T01:26:23.162Z,100.00
2023-02-28T01:28:50.772Z,100.00
2023-02-28T01:31:17.857Z,100.00
2023-02-28T01:33:44.712Z,100.00
2023-02-28T01:36:30.228Z,100.00
2023-02-28T01:38:57.155Z,100.00
2023-02-28T01:41:30.150Z,100.00
2023-02-28T01:44:08.904Z,100.00
2023-02-28T01:46:36.749Z,100.00
2023-02-28T01:49:08.727Z,100.00
2023-02-28T01:51:51.727Z,100.00
2023-02-28T01:54:23.020Z,100.00
2023-02-28T01:57:00.465Z,100.00
2023-02-28T01:59:47.421Z,100.00
2023-02-28T02:02:15.416Z,100.00
2023-02-28T02:04:50.779Z,100.00
2023-02-28T02:07:17.676Z,100.00
2023-02-28T02:09:44.376Z,100.00
2023-02-28T02:12:37.984Z,100.00
2023-02-28T02:15:14.676Z,100.00
2023-02-28T02:17:49.403Z,100.00
2023-02-28T02:20:47.136Z,100.00
2023-02-28T02:23:38.729Z,100.00
2023-02-28T02:26:32.835Z,100.00
2023-02-28T02:29:08.645Z,100.00
2023-02-28T02:31:53.800Z,100.00
2023-02-28T02:35:05.350Z,100.00
2023-02-28T02:37:34.726Z,100.00
2023-02-28T02:40:16.116Z,100.00
2023-02-28T02:43:10.386Z,100.00
2023-02-28T02:45:39.241Z,100.00
2023-02-28T02:48:08.489Z,100.00
2023-02-28T02:50:39.694Z,100.00
2023-02-28T02:53:08.245Z,100.00
2023-02-28T02:55:38.534Z,100.00
2023-02-28T02:58:09.355Z,100.00
2023-02-28T03:00:42.914Z,100.00
2023-02-28T03:03:11.327Z,100.00
2023-02-28T03:05:48.037Z,100.00
2023-02-28T03:08:15.708Z,100.00
2023-02-28T03:10:44.740Z,100.00
2023-02-28T03:13:17.235Z,100.00
2023-02-28T03:16:14.198Z,100.00
2023-02-28T03:19:09.113Z,100.00
2023-02-28T03:21:50.074Z,100.00
2023-02-28T03:24:20.781Z,100.00
2023-02-28T03:26:54.239Z,100.00
2023-02-28T03:29:36.489Z,100.00
2023-02-28T03:32:22.630Z,100.00
2023-02-28T03:34:56.997Z,100.00
2023-02-28T03:37:25.436Z,100.00
2023-02-28T03:40:00.133Z,100.00
2023-02-28T03:42:29.173Z,100.00
2023-02-28T03:45:01.971Z,100.00
2023-02-28T03:48:02.569Z,100.00
2023-02-28T03:50:36.406Z,100.00
2023-02-28T03:53:08.817Z,100.00
2023-02-28T03:55:55.630Z,100.00
2023-02-28T03:58:37.829Z,100.00
2023-02-28T04:01:09.478Z,100.00
2023-02-28T04:03:39.926Z,100.00
2023-02-28T04:06:09.121Z,100.00
2023-02-28T04:08:35.831Z,100.00
2023-02-28T04:11:10.070Z,100.00
2023-02-28T04:13:36.830Z,100.00
2023-02-28T04:16:18.694Z,100.00
2023-02-28T04:18:48.456Z,100.00
2023-02-28T04:21:15.299Z,100.00
2023-02-28T04:23:42.420Z,100.00
2023-02-28T04:26:09.243Z,100.00
2023-02-28T04:28:35.971Z,100.00
2023-02-28T04:31:05.178Z,100.00
2023-02-28T04:33:33.145Z,100.00
2023-02-28T04:36:05.178Z,100.00
2023-02-28T04:38:36.638Z,100.00
2023-02-28T04:41:03.552Z,100.00
2023-02-28T04:43:30.891Z,100.00
2023-02-28T04:45:59.067Z,100.00
2023-02-28T04:48:26.759Z,100.00
2023-02-28T04:50:53.477Z,100.00
2023-02-28T04:53:20.704Z,100.00
2023-02-28T04:55:47.530Z,100.00
2023-02-28T04:58:15.406Z,100.00
2023-02-28T05:00:42.169Z,100.00
2023-02-28T05:03:08.895Z,100.00
2023-02-28T05:05:35.615Z,100.00
2023-02-28T05:08:02.435Z,100.00
2023-02-28T05:10:29.288Z,100.00
2023-02-28T05:12:55.992Z,100.00
2023-02-28T05:15:22.758Z,100.00
2023-02-28T05:17:49.514Z,100.00
2023-02-28T05:20:16.545Z,100.00
2023-02-28T05:22:44.321Z,100.00
2023-02-28T05:25:18.484Z,100.00
2023-02-28T05:27:45.504Z,100.00
2023-02-28T05:30:12.595Z,100.00
2023-02-28T05:32:40.150Z,100.00
2023-02-28T05:35:07.312Z,100.00
2023-02-28T05:37:34.029Z,100.00
2023-02-28T05:40:00.907Z,100.00
2023-02-28T05:42:27.695Z,100.00
2023-02-28T05:44:54.262Z,100.00
2023-02-28T05:47:20.935Z,100.00
2023-02-28T05:49:47.488Z,100.00
2023-02-28T05:52:14.221Z,100.00
2023-02-28T05:54:41.111Z,100.00
2023-02-28T05:57:15.476Z,100.00
2023-02-28T05:59:49.476Z,100.00
2023-02-28T06:02:18.316Z,100.00
2023-02-28T06:04:45.531Z,100.00
2023-02-28T06:07:12.675Z,100.00
2023-02-28T06:09:39.619Z,100.00
2023-02-28T06:12:08.242Z,100.00
2023-02-28T06:14:35.593Z,100.00
2023-02-28T06:17:03.237Z,100.00
2023-02-28T06:19:31.205Z,100.00
2023-02-28T06:21:58.397Z,100.00
2023-02-28T06:24:26.054Z,100.00
2023-02-28T06:26:52.652Z,100.00
2023-02-28T06:29:19.457Z,100.00
2023-02-28T06:31:47.420Z,100.00
2023-02-28T06:34:14.950Z,100.00
2023-02-28T06:36:42.691Z,100.00
2023-02-28T06:39:10.240Z,100.00
2023-02-28T06:41:53.728Z,100.00
2023-02-28T06:44:22.372Z,100.00
2023-02-28T06:46:49.119Z,100.00
2023-02-28T06:49:16.619Z,100.00
2023-02-28T06:51:46.381Z,100.00
2023-02-28T06:54:13.574Z,100.00
2023-02-28T06:56:40.887Z,100.00
2023-02-28T06:59:07.831Z,100.00
2023-02-28T07:01:34.729Z,100.00
2023-02-28T07:04:01.457Z,100.00
2023-02-28T07:06:28.883Z,100.00
2023-02-28T07:08:56.166Z,100.00
2023-02-28T07:11:26.771Z,100.00
2023-02-28T07:13:57.437Z,100.00
2023-02-28T07:16:25.488Z,100.00
2023-02-28T07:18:55.947Z,100.00
2023-02-28T07:21:23.008Z,100.00
2023-02-28T07:23:49.784Z,100.00
2023-02-28T07:26:18.494Z,100.00
2023-02-28T07:28:47.273Z,100.00
2023-02-28T07:31:15.440Z,100.00
2023-02-28T07:33:42.752Z,100.00
2023-02-28T07:36:16.482Z,100.00
2023-02-28T07:38:47.750Z,100.00
2023-02-28T07:41:16.778Z,100.00
2023-02-28T07:43:43.936Z,100.00
2023-02-28T07:46:13.838Z,100.00
2023-02-28T07:48:40.662Z,100.00
2023-02-28T07:51:07.710Z,100.00
2023-02-28T07:53:34.796Z,100.00
2023-02-28T07:56:02.743Z,100.00
2023-02-28T07:58:30.385Z,100.00
2023-02-28T08:00:57.274Z,100.00
2023-02-28T08:03:25.304Z,100.00
2023-02-28T08:05:53.570Z,100.00
2023-02-28T08:08:20.402Z,100.00
2023-02-28T08:10:47.164Z,100.00
2023-02-28T08:13:14.028Z,100.00
2023-02-28T08:15:43.342Z,100.00
2023-02-28T08:18:10.148Z,100.00
2023-02-28T08:20:36.861Z,100.00
2023-02-28T08:23:03.659Z,100.00
2023-02-28T08:25:30.341Z,100.00
2023-02-28T08:27:57.077Z,100.00
2023-02-28T08:30:23.946Z,100.00
2023-02-28T08:32:50.751Z,100.00
2023-02-28T08:35:17.523Z,100.00
2023-02-28T08:37:44.252Z,100.00
2023-02-28T08:40:11.995Z,100.00
2023-02-28T08:42:38.729Z,100.00
2023-02-28T08:45:06.062Z,100.00
2023-02-28T08:47:32.994Z,100.00
2023-02-28T08:49:59.784Z,100.00
2023-02-28T08:52:26.499Z,100.00
2023-02-28T08:54:53.254Z,100.00
2023-02-28T08:57:19.923Z,97.87
2023-02-28T08:59:46.908Z,98.95
2023-02-28T09:02:15.398Z,99.33
2023-02-28T09:04:42.784Z,95.74
2023-02-28T09:07:09.504Z,94.45
2023-02-28T09:09:36.256Z,97.04
2023-02-28T09:12:03.238Z,94.54
2023-02-28T09:14:30.004Z,93.60
2023-02-28T09:16:56.662Z,96.52
2023-02-28T09:19:23.515Z,93.29
2023-02-28T09:21:50.244Z,91.57
2023-02-28T09:24:17.018Z,93.13
2023-02-28T09:26:56.407Z,93.01
2023-02-28T09:29:31.165Z,93.52
2023-02-28T09:31:59.953Z,89.97
2023-02-28T09:34:27.949Z,88.55
2023-02-28T09:36:56.081Z,89.47
2023-02-28T09:39:23.985Z,85.85
2023-02-28T09:41:55.452Z,86.03
2023-02-28T09:44:45.271Z,84.59
2023-02-28T09:47:20.240Z,86.35
2023-02-28T09:49:48.867Z,85.66
2023-02-28T09:52:20.440Z,84.18
2023-02-28T09:54:47.297Z,83.03
2023-02-28T09:57:34.322Z,83.25
2023-02-28T10:00:01.687Z,82.58
2023-02-28T10:02:52.407Z,81.78
2023-02-28T10:05:32.713Z,82.89
2023-02-28T10:08:11.657Z,84.10
2023-02-28T10:10:44.987Z,81.68
2023-02-28T10:13:32.942Z,84.12
2023-02-28T10:16:03.802Z,81.06
2023-02-28T10:18:47.335Z,84.66
2023-02-28T10:21:38.339Z,82.94
2023-02-28T10:24:21.340Z,80.83
2023-02-28T10:26:49.117Z,80.77
2023-02-28T10:29:16.280Z,82.81
2023-02-28T10:31:43.208Z,79.88
2023-02-28T10:34:13.678Z,80.83
2023-02-28T10:36:41.188Z,80.13
2023-02-28T10:39:44.307Z,81.25
2023-02-28T10:42:29.110Z,77.20
2023-02-28T10:45:17.082Z,79.73
2023-02-28T10:47:54.020Z,83.20
2023-02-28T10:50:33.976Z,77.53
2023-02-28T10:53:16.105Z,79.25
2023-02-28T10:55:43.059Z,77.49
2023-02-28T10:58:23.466Z,76.45
2023-02-28T11:00:50.451Z,76.48
2023-02-28T11:03:36.002Z,76.91
2023-02-28T11:06:12.606Z,79.86
2023-02-28T11:08:55.116Z,81.89
2023-02-28T11:11:24.775Z,82.27
2023-02-28T11:13:54.809Z,80.15
2023-02-28T11:16:22.226Z,78.26
2023-02-28T11:18:51.564Z,79.12
2023-02-28T11:21:25.671Z,81.12
2023-02-28T11:23:57.019Z,78.14
2023-02-28T11:26:41.780Z,78.94
2023-02-28T11:29:16.625Z,78.17
2023-02-28T11:31:43.472Z,76.91
2023-02-28T11:34:26.961Z,77.16
2023-02-28T11:36:55.654Z,76.79
2023-02-28T11:39:22.500Z,75.73
2023-02-28T11:42:14.123Z,71.67
2023-02-28T11:44:40.799Z,72.07
2023-02-28T11:47:16.890Z,74.99
2023-02-28T11:49:55.706Z,73.22
2023-02-28T11:52:41.140Z,71.95
2023-02-28T11:55:31.033Z,72.55
2023-02-28T11:58:02.239Z,73.31
2023-02-28T12:01:06.403Z,76.89
2023-02-28T12:04:07.669Z,74.50
2023-02-28T12:06:46.578Z,73.83
2023-02-28T12:09:35.710Z,73.07
2023-02-28T12:12:08.882Z,72.11
2023-02-28T12:14:55.644Z,70.60
2023-02-28T12:17:34.660Z,74.97
2023-02-28T12:20:30.626Z,71.58
2023-02-28T12:23:38.349Z,74.40
2023-02-28T12:26:17.244Z,77.95
2023-02-28T12:28:47.722Z,74.74
2023-02-28T12:31:46.884Z,73.35
2023-02-28T12:34:19.703Z,74.70
2023-02-28T12:36:46.898Z,74.87
2023-02-28T12:39:23.722Z,74.35
2023-02-28T12:42:08.957Z,75.03
2023-02-28T12:44:46.178Z,74.45
2023-02-28T12:47:18.370Z,75.37
2023-02-28T12:49:50.650Z,73.22
2023-02-28T12:52:23.089Z,76.83
2023-02-28T12:55:06.378Z,74.56
2023-02-28T12:57:42.927Z,74.87
2023-02-28T13:00:20.999Z,76.15
2023-02-28T13:03:16.300Z,76.21
2023-02-28T13:06:13.985Z,77.00
2023-02-28T13:09:19.011Z,76.77
2023-02-28T13:11:50.324Z,75.80
2023-02-28T13:14:25.366Z,77.41
2023-02-28T13:17:00.410Z,78.13
2023-02-28T13:19:30.214Z,73.72
2023-02-28T13:21:58.051Z,73.92
2023-02-28T13:24:39.693Z,76.08
2023-02-28T13:27:06.999Z,76.79
2023-02-28T13:29:39.064Z,76.31
2023-02-28T13:32:09.367Z,76.56
2023-02-28T13:34:37.873Z,75.52
2023-02-28T13:37:22.880Z,77.75
2023-02-28T13:39:57.583Z,78.39
2023-02-28T13:43:00.828Z,79.07
2023-02-28T13:45:30.982Z,77.89
2023-02-28T13:48:03.208Z,77.23
2023-02-28T13:50:33.467Z,80.02
2023-02-28T13:53:12.574Z,79.85
2023-02-28T13:55:58.031Z,78.87
2023-02-28T13:58:42.320Z,78.47
2023-02-28T14:01:18.155Z,81.07
2023-02-28T14:04:04.550Z,83.17
2023-02-28T14:06:35.714Z,83.13
2023-02-28T14:09:20.602Z,83.81
2023-02-28T14:11:47.844Z,83.85
2023-02-28T14:14:36.369Z,81.44
2023-02-28T14:17:05.189Z,82.08
2023-02-28T14:19:33.888Z,81.22
2023-02-28T14:22:00.557Z,83.54
2023-02-28T14:24:42.619Z,83.01
2023-02-28T14:27:15.622Z,83.51
2023-02-28T14:29:51.546Z,84.57
2023-02-28T14:32:31.186Z,82.16
2023-02-28T14:35:36.822Z,84.69
2023-02-28T14:38:08.258Z,81.34
2023-02-28T14:40:36.412Z,80.97
2023-02-28T14:43:05.835Z,82.01
2023-02-28T14:45:35.238Z,82.65
2023-02-28T14:48:02.709Z,84.85
2023-02-28T14:50:35.475Z,86.45
2023-02-28T14:53:03.029Z,85.98
2023-02-28T14:55:36.016Z,85.84
2023-02-28T14:58:07.467Z,86.03
2023-02-28T15:00:38.749Z,88.25
2023-02-28T15:03:36.617Z,88.29
2023-02-28T15:06:04.927Z,87.78
2023-02-28T15:08:36.878Z,88.04
2023-02-28T15:11:06.637Z,88.16
2023-02-28T15:13:53.533Z,89.48
2023-02-28T15:16:23.485Z,91.35
2023-02-28T15:18:54.291Z,91.03
2023-02-28T15:21:42.713Z,90.51
2023-02-28T15:24:17.864Z,93.10
2023-02-28T15:26:47.486Z,94.06
2023-02-28T15:29:17.254Z,94.55
2023-02-28T15:31:58.349Z,94.51
2023-02-28T15:34:40.565Z,94.49
2023-02-28T15:37:33.364Z,94.17
2023-02-28T15:40:25.590Z,95.83
2023-02-28T15:43:19.115Z,100.00
2023-02-28T15:45:48.592Z,99.03
2023-02-28T15:48:32.958Z,98.11
2023-02-28T15:51:10.176Z,100.00
2023-02-28T15:53:50.918Z,100.00
2023-02-28T15:56:20.502Z,100.00
2023-02-28T15:58:47.253Z,100.00
2023-02-28T16:01:33.229Z,100.00
2023-02-28T16:04:06.200Z,100.00
2023-02-28T16:06:46.354Z,100.00
2023-02-28T16:09:15.809Z,100.00
2023-02-28T16:11:54.186Z,100.00
2023-02-28T16:14:26.215Z,100.00
2023-02-28T16:16:55.314Z,100.00
2023-02-28T16:19:22.755Z,100.00
2023-02-28T16:21:50.077Z,100.00
2023-02-28T16:24:16.700Z,100.00
2023-02-28T16:26:47.438Z,100.00
2023-02-28T16:29:26.108Z,100.00
2023-02-28T16:31:54.523Z,100.00
2023-02-28T16:34:21.532Z,100.00
2023-02-28T16:36:49.559Z,100.00
2023-02-28T16:39:16.254Z,100.00
2023-02-28T16:41:46.486Z,100.00
2023-02-28T16:44:22.610Z,100.00
2023-02-28T16:46:49.406Z,100.00
2023-02-28T16:49:16.153Z,100.00
2023-02-28T16:51:42.875Z,100.00
2023-02-28T16:54:09.565Z,100.00
2023-02-28T16:56:36.308Z,100.00
2023-02-28T16:59:03.494Z,100.00
2023-02-28T17:01:30.731Z,100.00
2023-02-28T17:03:57.922Z,100.00
2023-02-28T17:06:29.859Z,100.00
2023-02-28T17:08:58.025Z,100.00
2023-02-28T17:11:25.435Z,100.00
2023-02-28T17:13:52.456Z,100.00
2023-02-28T17:16:27.145Z,100.00
2023-02-28T17:18:56.250Z,100.00
2023-02-28T17:21:22.995Z,100.00
2023-02-28T17:23:49.861Z,100.00
2023-02-28T17:26:21.352Z,100.00
2023-02-28T17:28:49.417Z,100.00
2023-02-28T17:31:16.469Z,100.00
2023-02-28T17:33:43.212Z,100.00
2023-02-28T17:36:24.188Z,100.00
2023-02-28T17:38:51.397Z,100.00
2023-02-28T17:41:18.192Z,100.00
2023-02-28T17:43:44.959Z,100.00
2023-02-28T17:46:21.702Z,100.00
2023-02-28T17:48:49.919Z,100.00
2023-02-28T17:51:18.119Z,100.00
2023-02-28T17:53:45.083Z,100.00
2023-02-28T17:56:17.453Z,100.00
2023-02-28T17:58:44.456Z,100.00
2023-02-28T18:01:11.978Z,100.00
2023-02-28T18:03:39.859Z,100.00
2023-02-28T18:06:08.327Z,100.00
2023-02-28T18:08:36.373Z,100.00
2023-02-28T18:11:03.111Z,100.00
2023-02-28T18:13:29.923Z,100.00
2023-02-28T18:15:56.665Z,100.00
2023-02-28T18:18:23.449Z,100.00
2023-02-28T18:20:50.931Z,100.00
2023-02-28T18:23:19.480Z,100.00
2023-02-28T18:25:46.180Z,100.00
2023-02-28T18:28:13.019Z,100.00
2023-02-28T18:30:39.777Z,100.00
2023-02-28T18:33:06.507Z,100.00
2023-02-28T18:35:36.185Z,100.00
2023-02-28T18:38:07.405Z,100.00
2023-02-28T18:40:36.780Z,100.00
2023-02-28T18:43:04.378Z,100.00
2023-02-28T18:45:31.371Z,100.00
2023-02-28T18:47:58.294Z,100.00
2023-02-28T18:50:25.033Z,100.00
2023-02-28T18:52:51.653Z,100.00
2023-02-28T18:55:19.220Z,100.00
2023-02-28T18:57:49.125Z,100.00
2023-02-28T19:00:22.595Z,100.00
2023-02-28T19:02:50.762Z,100.00
2023-02-28T19:05:18.014Z,100.00
2023-02-28T19:07:45.249Z,100.00
2023-02-28T19:10:12.699Z,100.00
2023-02-28T19:12:39.649Z,100.00
2023-02-28T19:15:07.411Z,100.00
2023-02-28T19:17:34.288Z,100.00
2023-02-28T19:20:00.912Z,100.00
2023-02-28T19:22:27.692Z,100.00
2023-02-28T19:24:54.332Z,100.00
2023-02-28T19:27:21.092Z,100.00
2023-02-28T19:29:49.794Z,100.00
2023-02-28T19:32:16.968Z,100.00
2023-02-28T19:34:43.758Z,100.00
2023-02-28T19:37:11.088Z,100.00
2023-02-28T19:39:44.496Z,100.00
2023-02-28T19:42:16.545Z,100.00
2023-02-28T19:44:43.808Z,100.00
2023-02-28T19:47:10.800Z,100.00
2023-02-28T19:49:37.536Z,100.00
2023-02-28T19:52:05.004Z,100.00
2023-02-28T19:54:36.120Z,100.00
2023-02-28T19:57:03.230Z,100.00
2023-02-28T19:59:38.517Z,100.00
2023-02-28T20:02:07.245Z,100.00
2023-02-28T20:04:33.877Z,100.00
2023-02-28T20:07:00.519Z,100.00
2023-02-28T20:09:32.095Z,100.00
2023-02-28T20:12:02.519Z,100.00
2023-02-28T20:14:29.190Z,100.00
2023-02-28T20:16:57.903Z,100.00
2023-02-28T20:19:25.070Z,100.00
2023-02-28T20:21:51.730Z,100.00
2023-02-28T20:24:18.459Z,100.00
2023-02-28T20:26:45.129Z,100.00
2023-02-28T20:29:12.233Z,100.00
2023-02-28T20:31:38.900Z,100.00
2023-02-28T20:34:05.684Z,100.00
2023-02-28T20:36:32.618Z,100.00
2023-02-28T20:39:00.418Z,100.00
2023-02-28T20:41:27.540Z,100.00
2023-02-28T20:43:58.503Z,100.00
2023-02-28T20:46:26.292Z,100.00
2023-02-28T20:48:53.318Z,100.00
2023-02-28T20:51:20.554Z,100.00
2023-02-28T20:53:47.549Z,100.00
2023-02-28T20:56:16.542Z,100.00
2023-02-28T20:58:45.096Z,100.00
2023-02-28T21:01:17.518Z,100.00
2023-02-28T21:03:48.971Z,100.00
2023-02-28T21:06:17.375Z,100.00
2023-02-28T21:08:44.136Z,100.00
2023-02-28T21:11:14.949Z,100.00
2023-02-28T21:13:42.881Z,100.00
2023-02-28T21:16:13.184Z,100.00
2023-02-28T21:18:39.992Z,100.00
2023-02-28T21:21:12.476Z,100.00
2023-02-28T21:23:39.139Z,100.00
2023-02-28T21:26:10.983Z,100.00
2023-02-28T21:28:38.760Z,100.00
2023-02-28T21:31:08.628Z,100.00
2023-02-28T21:33:35.868Z,100.00
2023-02-28T21:36:08.722Z,100.00
2023-02-28T21:38:36.887Z,100.00
2023-02-28T21:41:13.760Z,100.00
2023-02-28T21:43:41.409Z,100.00
2023-02-28T21:46:11.444Z,100.00
2023-02-28T21:48:39.207Z,100.00
2023-02-28T21:51:09.162Z,100.00
2023-02-28T21:53:37.847Z,100.00
2023-02-28T21:56:06.354Z,100.00
2023-02-28T21:58:33.212Z,100.00
2023-02-28T22:01:07.417Z,100.00
2023-02-28T22:03:34.605Z,100.00
2023-02-28T22:06:01.475Z,100.00
2023-02-28T22:08:28.246Z,100.00
2023-02-28T22:10:54.834Z,100.00
2023-02-28T22:13:21.502Z,100.00
2023-02-28T22:15:48.625Z,100.00
2023-02-28T22:18:15.257Z,100.00
2023-02-28T22:20:41.852Z,100.00
2023-02-28T22:23:08.652Z,100.00
2023-02-28T22:25:37.626Z,100.00
2023-02-28T22:28:04.414Z,100.00
2023-02-28T22:30:31.313Z,100.00
2023-02-28T22:32:57.951Z,100.00
2023-02-28T22:35:24.501Z,100.00
2023-02-28T22:37:51.094Z,100.00
2023-02-28T22:40:17.893Z,100.00
2023-02-28T22:42:44.563Z,100.00
2023-02-28T22:45:11.717Z,100.00
2023-02-28T22:47:38.661Z,100.00
2023-02-28T22:50:06.033Z,100.00
2023-02-28T22:52:32.580Z,100.00
2023-02-28T22:54:59.444Z,100.00
2023-02-28T22:57:26.023Z,100.00
2023-02-28T22:59:52.616Z,100.00
2023-02-28T23:02:19.219Z,100.00
2023-02-28T23:04:45.859Z,100.00
2023-02-28T23:07:14.144Z,100.00
2023-02-28T23:09:40.792Z,100.00
2023-02-28T23:12:08.056Z,100.00
2023-02-28T23:14:34.683Z,100.00
2023-02-28T23:17:01.280Z,100.00
2023-02-28T23:19:30.470Z,100.00
2023-02-28T23:21:59.447Z,100.00
2023-02-28T23:24:28.033Z,100.00
2023-02-28T23:26:56.419Z,100.00
2023-02-28T23:29:25.102Z,100.00
2023-02-28T23:31:52.013Z,100.00
2023-02-28T23:34:26.184Z,100.00
2023-02-28T23:36:54.285Z,100.00
2023-02-28T23:39:21.859Z,100.00
2023-02-28T23:41:48.795Z,100.00
2023-02-28T23:44:18.888Z,100.00
2023-02-28T23:46:47.624Z,100.00
2023-02-28T23:49:15.480Z,100.00
2023-02-28T23:51:42.480Z,100.00
2023-02-28T23:54:09.128Z,100.00
2023-02-28T23:56:35.727Z,100.00
2023-02-28T23:59:02.293Z,100.00
